sensor_id;sensor_type;location;lat;lon;timestamp;P1;durP1;ratioP1;P2;durP2;ratioP2
57301;SDS011;43149;50.974;18.224;2022-12-18T00:08:43;32.60;;;15.60;;
57301;SDS011;43149;50.974;18.224;2022-12-18T00:18:50;79.80;;;25.10;;
57301;SDS011;43149;50.974;18.224;2022-12-18T00:28:40;55.70;;;17.50;;
57301;SDS011;43149;50.974;18.224;2022-12-18T00:38:52;58.70;;;20.70;;
57301;SDS011;43149;50.974;18.224;2022-12-18T00:56:15;50.10;;;17.90;;
57301;SDS011;43149;50.974;18.224;2022-12-18T01:05:58;9.70;;;6.50;;
57301;SDS011;43149;50.974;18.224;2022-12-18T01:15:47;51.20;;;13.50;;
57301;SDS011;43149;50.974;18.224;2022-12-18T01:25:35;75.50;;;21.60;;
57301;SDS011;43149;50.974;18.224;2022-12-18T01:35:18;55.20;;;19.10;;
57301;SDS011;43149;50.974;18.224;2022-12-18T01:40:10;102.20;;;39.30;;
57301;SDS011;43149;50.974;18.224;2022-12-18T02:00:50;52.50;;;17.60;;
57301;SDS011;43149;50.974;18.224;2022-12-18T02:31:25;61.20;;;19.80;;
57301;SDS011;43149;50.974;18.224;2022-12-18T02:41:10;55.50;;;19.60;;
57301;SDS011;43149;50.974;18.224;2022-12-18T02:51:16;74.00;;;23.00;;
57301;SDS011;43149;50.974;18.224;2022-12-18T03:11:54;42.50;;;10.40;;
57301;SDS011;43149;50.974;18.224;2022-12-18T03:22:00;53.20;;;13.30;;
57301;SDS011;43149;50.974;18.224;2022-12-18T03:31:54;49.20;;;18.00;;
57301;SDS011;43149;50.974;18.224;2022-12-18T03:41:51;22.30;;;9.80;;
57301;SDS011;43149;50.974;18.224;2022-12-18T03:52:09;37.70;;;10.20;;
57301;SDS011;43149;50.974;18.224;2022-12-18T04:09:18;53.20;;;17.20;;
57301;SDS011;43149;50.974;18.224;2022-12-18T04:19:03;42.50;;;9.30;;
57301;SDS011;43149;50.974;18.224;2022-12-18T04:28:49;31.80;;;11.80;;
57301;SDS011;43149;50.974;18.224;2022-12-18T04:38:34;35.40;;;11.90;;
57301;SDS011;43149;50.974;18.224;2022-12-18T04:48:20;49.30;;;19.40;;
57301;SDS011;43149;50.974;18.224;2022-12-18T04:58:03;31.40;;;13.10;;
57301;SDS011;43149;50.974;18.224;2022-12-18T05:07:46;63.70;;;13.00;;
57301;SDS011;43149;50.974;18.224;2022-12-18T05:17:49;46.80;;;19.50;;
57301;SDS011;43149;50.974;18.224;2022-12-18T05:27:34;29.80;;;12.50;;
57301;SDS011;43149;50.974;18.224;2022-12-18T05:37:16;33.80;;;14.20;;
57301;SDS011;43149;50.974;18.224;2022-12-18T05:47:00;38.90;;;12.20;;
57301;SDS011;43149;50.974;18.224;2022-12-18T05:56:50;44.00;;;13.50;;
57301;SDS011;43149;50.974;18.224;2022-12-18T06:06:34;31.80;;;13.50;;
57301;SDS011;43149;50.974;18.224;2022-12-18T06:23:37;51.20;;;18.50;;
57301;SDS011;43149;50.974;18.224;2022-12-18T06:33:25;55.40;;;19.30;;
57301;SDS011;43149;50.974;18.224;2022-12-18T06:43:09;78.40;;;25.90;;
57301;SDS011;43149;50.974;18.224;2022-12-18T06:52:51;43.30;;;17.00;;
57301;SDS011;43149;50.974;18.224;2022-12-18T07:02:35;82.50;;;27.40;;
57301;SDS011;43149;50.974;18.224;2022-12-18T07:12:18;28.40;;;16.30;;
57301;SDS011;43149;50.974;18.224;2022-12-18T07:22:01;67.70;;;22.30;;
57301;SDS011;43149;50.974;18.224;2022-12-18T07:31:44;47.80;;;17.20;;
57301;SDS011;43149;50.974;18.224;2022-12-18T07:41:30;41.10;;;14.60;;
57301;SDS011;43149;50.974;18.224;2022-12-18T07:51:15;38.80;;;19.10;;
57301;SDS011;43149;50.974;18.224;2022-12-18T08:01:19;48.50;;;9.00;;
57301;SDS011;43149;50.974;18.224;2022-12-18T08:11:02;58.80;;;17.20;;
57301;SDS011;43149;50.974;18.224;2022-12-18T08:20:50;52.50;;;13.00;;
57301;SDS011;43149;50.974;18.224;2022-12-18T08:25:41;88.00;;;32.90;;
57301;SDS011;43149;50.974;18.224;2022-12-18T08:35:23;47.80;;;13.20;;
57301;SDS011;43149;50.974;18.224;2022-12-18T08:45:26;31.80;;;13.20;;
57301;SDS011;43149;50.974;18.224;2022-12-18T08:55:11;59.40;;;17.20;;
57301;SDS011;43149;50.974;18.224;2022-12-18T09:04:54;45.10;;;15.60;;
57301;SDS011;43149;50.974;18.224;2022-12-18T09:14:37;51.20;;;21.30;;
57301;SDS011;43149;50.974;18.224;2022-12-18T09:19:28;84.80;;;30.90;;
57301;SDS011;43149;50.974;18.224;2022-12-18T09:21:54;86.60;;;32.20;;
57301;SDS011;43149;50.974;18.224;2022-12-18T09:31:40;62.60;;;19.60;;
57301;SDS011;43149;50.974;18.224;2022-12-18T09:41:40;51.60;;;18.20;;
57301;SDS011;43149;50.974;18.224;2022-12-18T10:02:34;41.10;;;15.20;;
57301;SDS011;43149;50.974;18.224;2022-12-18T10:12:50;52.60;;;19.90;;
57301;SDS011;43149;50.974;18.224;2022-12-18T10:22:53;38.30;;;13.40;;
57301;SDS011;43149;50.974;18.224;2022-12-18T10:33:02;39.20;;;15.70;;
57301;SDS011;43149;50.974;18.224;2022-12-18T10:43:41;10.80;;;6.40;;
57301;SDS011;43149;50.974;18.224;2022-12-18T10:53:54;57.70;;;17.40;;
57301;SDS011;43149;50.974;18.224;2022-12-18T11:04:13;46.50;;;15.90;;
57301;SDS011;43149;50.974;18.224;2022-12-18T11:14:25;52.50;;;20.30;;
57301;SDS011;43149;50.974;18.224;2022-12-18T11:54:58;44.70;;;14.20;;
57301;SDS011;43149;50.974;18.224;2022-12-18T12:26:52;76.90;;;20.80;;
57301;SDS011;43149;50.974;18.224;2022-12-18T12:47:58;62.90;;;20.40;;
57301;SDS011;43149;50.974;18.224;2022-12-18T12:57:52;46.10;;;15.50;;
57301;SDS011;43149;50.974;18.224;2022-12-18T13:28:22;59.20;;;15.50;;
57301;SDS011;43149;50.974;18.224;2022-12-18T13:38:38;65.00;;;24.00;;
57301;SDS011;43149;50.974;18.224;2022-12-18T13:48:28;59.80;;;20.80;;
57301;SDS011;43149;50.974;18.224;2022-12-18T13:58:25;57.80;;;23.20;;
57301;SDS011;43149;50.974;18.224;2022-12-18T14:08:17;11.60;;;6.40;;
57301;SDS011;43149;50.974;18.224;2022-12-18T14:28:47;68.50;;;20.70;;
57301;SDS011;43149;50.974;18.224;2022-12-18T14:39:18;74.90;;;24.60;;
57301;SDS011;43149;50.974;18.224;2022-12-18T14:49:02;67.70;;;24.20;;
57301;SDS011;43149;50.974;18.224;2022-12-18T14:59:00;93.30;;;32.10;;
57301;SDS011;43149;50.974;18.224;2022-12-18T15:09:02;98.50;;;33.50;;
57301;SDS011;43149;50.974;18.224;2022-12-18T15:18:52;85.80;;;32.70;;
57301;SDS011;43149;50.974;18.224;2022-12-18T15:28:53;116.10;;;47.90;;
57301;SDS011;43149;50.974;18.224;2022-12-18T15:39:02;131.60;;;51.80;;
57301;SDS011;43149;50.974;18.224;2022-12-18T15:56:11;159.20;;;54.60;;
57301;SDS011;43149;50.974;18.224;2022-12-18T16:06:18;155.20;;;58.30;;
57301;SDS011;43149;50.974;18.224;2022-12-18T16:16:50;162.20;;;58.00;;
57301;SDS011;43149;50.974;18.224;2022-12-18T16:26:43;168.80;;;61.10;;
57301;SDS011;43149;50.974;18.224;2022-12-18T16:36:37;152.80;;;51.70;;
57301;SDS011;43149;50.974;18.224;2022-12-18T16:46:26;186.60;;;63.30;;
57301;SDS011;43149;50.974;18.224;2022-12-18T16:56:13;219.20;;;54.30;;
57301;SDS011;43149;50.974;18.224;2022-12-18T17:06:03;256.60;;;68.80;;
57301;SDS011;43149;50.974;18.224;2022-12-18T17:15:48;140.90;;;48.30;;
57301;SDS011;43149;50.974;18.224;2022-12-18T17:25:34;199.10;;;71.30;;
57301;SDS011;43149;50.974;18.224;2022-12-18T17:35:20;188.10;;;58.80;;
57301;SDS011;43149;50.974;18.224;2022-12-18T17:45:06;103.20;;;37.30;;
57301;SDS011;43149;50.974;18.224;2022-12-18T17:54:51;160.60;;;58.90;;
57301;SDS011;43149;50.974;18.224;2022-12-18T18:04:36;93.70;;;33.50;;
57301;SDS011;43149;50.974;18.224;2022-12-18T18:15:38;170.90;;;59.40;;
57301;SDS011;43149;50.974;18.224;2022-12-18T18:25:43;176.40;;;67.10;;
57301;SDS011;43149;50.974;18.224;2022-12-18T18:35:28;191.10;;;63.90;;
57301;SDS011;43149;50.974;18.224;2022-12-18T18:45:12;200.60;;;71.40;;
57301;SDS011;43149;50.974;18.224;2022-12-18T19:02:45;232.20;;;93.90;;
57301;SDS011;43149;50.974;18.224;2022-12-18T19:12:30;200.70;;;83.20;;
57301;SDS011;43149;50.974;18.224;2022-12-18T19:22:32;176.20;;;77.40;;
57301;SDS011;43149;50.974;18.224;2022-12-18T19:32:15;258.20;;;101.10;;
57301;SDS011;43149;50.974;18.224;2022-12-18T19:42:02;98.30;;;36.80;;
57301;SDS011;43149;50.974;18.224;2022-12-18T19:51:48;151.30;;;41.30;;
57301;SDS011;43149;50.974;18.224;2022-12-18T19:56:40;198.60;;;85.00;;
57301;SDS011;43149;50.974;18.224;2022-12-18T20:16:14;157.10;;;62.20;;
57301;SDS011;43149;50.974;18.224;2022-12-18T20:25:59;131.90;;;56.30;;
57301;SDS011;43149;50.974;18.224;2022-12-18T20:35:58;139.70;;;59.20;;
57301;SDS011;43149;50.974;18.224;2022-12-18T20:45:59;127.90;;;48.80;;
57301;SDS011;43149;50.974;18.224;2022-12-18T20:55:51;119.80;;;34.60;;
57301;SDS011;43149;50.974;18.224;2022-12-18T21:12:52;123.20;;;50.10;;
57301;SDS011;43149;50.974;18.224;2022-12-18T21:22:39;137.30;;;46.80;;
57301;SDS011;43149;50.974;18.224;2022-12-18T21:32:22;124.20;;;47.00;;
57301;SDS011;43149;50.974;18.224;2022-12-18T21:49:50;137.30;;;58.70;;
57301;SDS011;43149;50.974;18.224;2022-12-18T21:59:38;127.50;;;47.70;;
57301;SDS011;43149;50.974;18.224;2022-12-18T22:09:30;118.30;;;54.30;;
57301;SDS011;43149;50.974;18.224;2022-12-18T22:19:15;125.10;;;43.90;;
57301;SDS011;43149;50.974;18.224;2022-12-18T22:29:09;134.20;;;47.30;;
57301;SDS011;43149;50.974;18.224;2022-12-18T22:39:15;144.00;;;52.50;;
57301;SDS011;43149;50.974;18.224;2022-12-18T22:49:01;132.20;;;50.30;;
57301;SDS011;43149;50.974;18.224;2022-12-18T22:58:48;120.80;;;47.80;;
57301;SDS011;43149;50.974;18.224;2022-12-18T23:08:36;119.10;;;44.20;;
57301;SDS011;43149;50.974;18.224;2022-12-18T23:18:19;105.70;;;44.30;;
57301;SDS011;43149;50.974;18.224;2022-12-18T23:28:03;147.90;;;49.90;;
57301;SDS011;43149;50.974;18.224;2022-12-18T23:37:52;55.80;;;21.50;;
57301;SDS011;43149;50.974;18.224;2022-12-18T23:47:35;97.40;;;35.80;;
57301;SDS011;43149;50.974;18.224;2022-12-18T23:57:17;139.40;;;45.00;;
